Time;durP1;ratioP1;P1;durP2;ratioP2;P2;SDS_P1;SDS_P2;PMS_P1;PMS_P2;Temp;Humidity;BMP_temperature;BMP_pressure;BME280_temperature;BME280_humidity;BME280_pressure;Samples;Min_cycle;Max_cycle;Signal;HPM_P1;HPM_P2
2022/10/28 00:00:22;;;;;;;19.15;8.82;;;15.30;99.90;;;;;;4890125;29;20124;-62
2022/10/28 00:02:48;;;;;;;12.40;7.93;;;15.30;99.90;;;;;;4920253;28;20441;-62
2022/10/28 00:05:14;;;;;;;17.42;9.15;;;15.30;99.90;;;;;;4886883;29;20041;-62
2022/10/28 00:07:40;;;;;;;16.15;8.10;;;15.30;99.90;;;;;;4923249;28;20045;-62
2022/10/28 00:10:07;;;;;;;16.73;8.60;;;15.30;99.90;;;;;;4929242;28;20052;-62
2022/10/28 00:12:37;;;;;;;16.50;8.85;;;15.30;99.90;;;;;;4897755;29;20511;-62
2022/10/28 00:15:03;;;;;;;12.88;8.13;;;15.30;99.90;;;;;;4884299;29;20773;-63
2022/10/28 00:17:29;;;;;;;14.13;9.00;;;15.30;99.90;;;;;;4899849;29;20521;-62
2022/10/28 00:19:55;;;;;;;16.60;8.73;;;15.30;99.90;;;;;;4886940;29;20052;-62
2022/10/28 00:22:21;;;;;;;21.58;9.30;;;15.30;99.90;;;;;;4891521;29;20064;-62
2022/10/28 00:24:47;;;;;;;24.80;8.35;;;15.40;99.90;;;;;;4886868;29;20596;-62
2022/10/28 00:27:13;;;;;;;24.08;9.95;;;15.40;99.90;;;;;;4886182;29;20605;-63
2022/10/28 00:29:38;;;;;;;19.77;8.82;;;15.40;99.90;;;;;;4887709;29;20503;-62
2022/10/28 00:32:04;;;;;;;17.25;8.98;;;15.50;99.90;;;;;;4890143;29;20059;-62
2022/10/28 00:34:30;;;;;;;19.08;9.00;;;15.50;99.90;;;;;;4914915;28;20044;-62
2022/10/28 00:36:56;;;;;;;19.52;8.88;;;15.50;99.90;;;;;;4883645;29;20136;-62
2022/10/28 00:39:24;;;;;;;15.95;9.38;;;15.50;99.90;;;;;;4916520;28;21696;-62
2022/10/28 00:41:53;;;;;;;21.70;9.15;;;15.50;99.90;;;;;;4912013;28;20514;-63
2022/10/28 00:44:57;;;;;;;34.67;9.60;;;15.50;99.90;;;;;;4878727;29;20055;-62
2022/10/28 00:47:54;;;;;;;18.92;8.68;;;15.50;99.90;;;;;;4879913;29;20174;-62
2022/10/28 00:50:50;;;;;;;15.77;8.65;;;15.50;99.90;;;;;;4864437;29;20108;-63
2022/10/28 00:53:29;;;;;;;16.83;9.13;;;15.50;99.90;;;;;;4888067;29;20044;-62
2022/10/28 00:55:56;;;;;;;20.45;8.57;;;15.50;99.90;;;;;;4883278;29;20051;-62
2022/10/28 00:58:24;;;;;;;17.58;8.80;;;15.50;99.90;;;;;;4892380;29;20133;-63
2022/10/28 01:00:50;;;;;;;15.05;8.48;;;15.50;99.90;;;;;;4888600;29;20472;-63
2022/10/28 01:03:16;;;;;;;17.73;8.40;;;15.50;99.90;;;;;;4885117;29;20048;-62
2022/10/28 01:05:45;;;;;;;14.77;8.52;;;15.60;99.90;;;;;;4888872;29;20476;-62
2022/10/28 01:08:11;;;;;;;18.95;8.73;;;15.60;99.90;;;;;;4886867;29;20060;-63
2022/10/28 01:11:05;;;;;;;15.05;8.10;;;15.60;99.90;;;;;;4885461;29;20055;-62
2022/10/28 01:14:15;;;;;;;16.30;9.05;;;15.60;99.90;;;;;;4890531;29;20044;-62
2022/10/28 01:17:16;;;;;;;23.27;8.98;;;15.60;99.90;;;;;;4888985;29;20040;-63
2022/10/28 01:20:03;;;;;;;21.70;8.65;;;15.60;99.90;;;;;;4888926;29;20061;-63
2022/10/28 01:23:03;;;;;;;22.80;9.07;;;15.50;99.90;;;;;;4917807;28;20056;-62
2022/10/28 01:25:57;;;;;;;20.40;8.63;;;15.60;99.90;;;;;;4876746;29;20558;-62
2022/10/28 01:28:52;;;;;;;16.45;8.93;;;15.50;99.90;;;;;;4885925;29;20052;-63
2022/10/28 01:31:26;;;;;;;15.27;8.70;;;15.50;99.90;;;;;;4884038;29;20139;-63
2022/10/28 01:34:16;;;;;;;18.17;9.20;;;15.50;99.90;;;;;;4886906;29;20108;-63
2022/10/28 01:37:01;;;;;;;19.55;9.05;;;15.50;99.90;;;;;;4883673;29;20044;-62
2022/10/28 01:39:29;;;;;;;17.15;8.75;;;15.40;99.90;;;;;;4914394;29;20052;-63
2022/10/28 01:42:07;;;;;;;17.02;8.98;;;15.40;99.90;;;;;;4892535;29;20060;-62
2022/10/28 01:44:49;;;;;;;16.98;9.32;;;15.30;99.90;;;;;;4898462;29;20052;-63
2022/10/28 01:47:21;;;;;;;20.73;8.90;;;15.30;99.90;;;;;;4886612;29;20044;-62
2022/10/28 01:49:50;;;;;;;16.73;8.73;;;15.30;99.90;;;;;;4887628;29;20167;-63
2022/10/28 01:52:21;;;;;;;22.00;9.52;;;15.20;99.90;;;;;;4891383;29;20052;-63
2022/10/28 01:54:50;;;;;;;23.85;9.73;;;15.30;99.90;;;;;;4903450;29;20457;-62
2022/10/28 01:57:17;;;;;;;23.42;9.68;;;15.20;99.90;;;;;;4924195;29;20067;-62
2022/10/28 01:59:45;;;;;;;20.67;9.50;;;15.20;99.90;;;;;;4899762;29;20077;-62
2022/10/28 02:02:11;;;;;;;21.42;9.02;;;15.20;99.90;;;;;;4893876;29;20465;-61
2022/10/28 02:04:36;;;;;;;18.02;9.70;;;15.20;99.90;;;;;;4924902;28;20052;-62
2022/10/28 02:07:04;;;;;;;18.25;8.93;;;15.10;99.90;;;;;;4902700;29;20088;-63
2022/10/28 02:10:12;;;;;;;16.70;8.48;;;15.10;99.90;;;;;;4888115;29;20064;-62
2022/10/28 02:12:38;;;;;;;19.80;9.63;;;15.10;99.90;;;;;;4890113;29;20059;-62
2022/10/28 02:15:13;;;;;;;19.23;9.38;;;15.00;99.90;;;;;;4893532;29;20059;-62
2022/10/28 02:18:01;;;;;;;15.90;9.30;;;15.00;99.90;;;;;;4887652;29;20045;-62
2022/10/28 02:20:38;;;;;;;19.50;9.30;;;15.00;99.90;;;;;;4922374;28;20130;-63
2022/10/28 02:23:16;;;;;;;18.42;9.38;;;15.00;99.90;;;;;;4890636;29;20048;-61
2022/10/28 02:25:52;;;;;;;18.02;9.85;;;15.00;99.90;;;;;;4918852;28;20189;-63
2022/10/28 02:28:40;;;;;;;19.15;9.43;;;15.00;99.90;;;;;;4919659;29;20056;-63
2022/10/28 02:31:31;;;;;;;17.95;9.75;;;15.00;99.90;;;;;;4887382;29;20131;-63
2022/10/28 02:34:02;;;;;;;17.45;9.93;;;15.00;99.90;;;;;;4883734;29;20103;-63
2022/10/28 02:36:31;;;;;;;22.38;9.73;;;15.00;99.90;;;;;;4919437;28;20048;-62
2022/10/28 02:38:59;;;;;;;15.32;9.80;;;15.00;99.90;;;;;;4886341;29;20147;-62
2022/10/28 02:41:51;;;;;;;22.42;10.52;;;15.00;99.90;;;;;;4923139;28;20056;-62
2022/10/28 02:44:23;;;;;;;20.05;10.52;;;14.90;99.90;;;;;;4887576;29;20092;-62
2022/10/28 02:46:49;;;;;;;19.23;10.70;;;15.00;99.90;;;;;;4889626;29;20056;-62
2022/10/28 02:49:15;;;;;;;17.90;10.00;;;14.90;99.90;;;;;;4889634;29;20048;-62
2022/10/28 02:52:04;;;;;;;21.90;10.10;;;14.90;99.90;;;;;;4889627;29;20056;-61
2022/10/28 02:54:46;;;;;;;17.60;10.20;;;15.00;99.90;;;;;;4902682;29;20060;-62
2022/10/28 02:57:18;;;;;;;24.50;11.63;;;14.90;99.90;;;;;;4918478;28;20061;-63
2022/10/28 02:59:59;;;;;;;22.50;11.13;;;14.90;99.90;;;;;;4901435;29;20112;-63
2022/10/28 03:02:26;;;;;;;21.00;11.20;;;14.90;99.90;;;;;;4887059;29;20060;-62
2022/10/28 03:04:52;;;;;;;20.83;10.68;;;14.90;99.90;;;;;;4907176;29;20048;-63
2022/10/28 03:07:18;;;;;;;19.85;11.32;;;14.90;99.90;;;;;;4886862;29;20059;-62
2022/10/28 03:09:44;;;;;;;19.05;11.07;;;14.90;99.90;;;;;;4890220;29;20123;-62
2022/10/28 03:12:10;;;;;;;21.65;11.45;;;14.90;99.90;;;;;;4890258;29;20048;-63
2022/10/28 03:14:36;;;;;;;21.30;11.63;;;14.90;99.90;;;;;;4885941;29;20044;-62
2022/10/28 03:17:02;;;;;;;22.67;10.52;;;14.90;99.90;;;;;;4889143;29;20431;-63
2022/10/28 03:19:28;;;;;;;23.13;12.02;;;14.90;99.90;;;;;;4887949;29;20047;-62
2022/10/28 03:21:54;;;;;;;19.45;11.45;;;14.80;99.90;;;;;;4918305;28;20048;-62
2022/10/28 03:24:20;;;;;;;27.92;12.15;;;14.80;99.90;;;;;;4889959;29;20479;-62
2022/10/28 03:26:45;;;;;;;22.63;11.73;;;14.80;99.90;;;;;;4890888;29;21334;-62
2022/10/28 03:29:11;;;;;;;26.30;11.98;;;14.80;99.90;;;;;;4888780;29;20096;-62
2022/10/28 03:31:37;;;;;;;26.73;11.98;;;14.80;99.90;;;;;;4888620;29;20060;-62
2022/10/28 03:34:03;;;;;;;23.00;11.65;;;14.80;99.90;;;;;;4889247;29;20064;-63
2022/10/28 03:36:28;;;;;;;26.58;12.35;;;14.80;99.90;;;;;;4886764;29;20487;-62
2022/10/28 03:38:54;;;;;;;20.17;11.90;;;14.80;99.90;;;;;;4919763;28;20071;-62
2022/10/28 03:41:20;;;;;;;21.23;12.55;;;14.80;99.90;;;;;;4885297;29;20071;-62
2022/10/28 03:43:46;;;;;;;21.38;12.73;;;14.80;99.90;;;;;;4893174;29;20511;-62
2022/10/28 03:46:11;;;;;;;24.00;13.15;;;14.80;99.90;;;;;;4887561;29;20060;-63
2022/10/28 03:48:37;;;;;;;24.05;12.60;;;14.80;99.90;;;;;;4886853;29;20064;-63
2022/10/28 03:51:03;;;;;;;20.88;12.63;;;14.70;99.90;;;;;;4915507;28;20044;-62
2022/10/28 03:53:29;;;;;;;22.75;13.50;;;14.80;99.90;;;;;;4917611;28;20728;-63
2022/10/28 03:55:57;;;;;;;22.98;13.45;;;14.70;99.90;;;;;;4919118;28;20108;-63
2022/10/28 03:58:24;;;;;;;25.90;13.13;;;14.70;99.90;;;;;;4919534;28;20132;-62
2022/10/28 04:00:50;;;;;;;25.67;13.52;;;14.70;99.90;;;;;;4890537;29;20055;-63
2022/10/28 04:03:18;;;;;;;24.45;13.88;;;14.70;99.90;;;;;;4886926;29;20056;-62
2022/10/28 04:05:44;;;;;;;22.05;13.88;;;14.70;99.90;;;;;;4887036;29;20080;-63
2022/10/28 04:08:10;;;;;;;26.83;14.27;;;14.70;99.90;;;;;;4903144;29;20112;-62
2022/10/28 04:10:36;;;;;;;27.85;14.55;;;14.70;99.90;;;;;;4917003;28;20056;-61
2022/10/28 04:13:04;;;;;;;22.88;14.15;;;14.70;99.90;;;;;;4894708;29;20048;-63
2022/10/28 04:15:30;;;;;;;32.75;15.07;;;14.70;99.90;;;;;;4899677;29;20062;-61
2022/10/28 04:17:56;;;;;;;27.23;14.85;;;14.70;99.90;;;;;;4897461;29;20040;-63
2022/10/28 04:20:23;;;;;;;32.15;14.57;;;14.70;99.90;;;;;;4928701;28;20127;-62
2022/10/28 04:22:49;;;;;;;26.35;13.75;;;14.70;99.90;;;;;;4893513;29;20048;-62
2022/10/28 04:25:15;;;;;;;29.20;14.48;;;14.70;99.90;;;;;;4899166;29;20075;-62
2022/10/28 04:27:44;;;;;;;31.83;15.75;;;14.70;99.90;;;;;;4896133;29;20040;-62
2022/10/28 04:30:11;;;;;;;26.77;15.20;;;14.70;99.90;;;;;;4896132;29;20048;-62
2022/10/28 04:32:38;;;;;;;28.80;15.38;;;14.70;99.90;;;;;;4896980;29;20188;-63
2022/10/28 04:35:04;;;;;;;32.58;14.90;;;14.70;99.90;;;;;;4893581;29;20193;-62
2022/10/28 04:37:30;;;;;;;29.42;14.45;;;14.70;99.90;;;;;;4929474;29;20551;-63
2022/10/28 04:39:56;;;;;;;28.88;14.27;;;14.60;99.90;;;;;;4911747;29;20048;-62
2022/10/28 04:42:24;;;;;;;25.38;15.50;;;14.70;99.90;;;;;;4894846;29;20483;-63
2022/10/28 04:44:50;;;;;;;27.02;14.00;;;14.70;99.90;;;;;;4903185;29;20922;-62
2022/10/28 04:47:16;;;;;;;24.13;14.95;;;14.70;99.90;;;;;;4897538;29;20063;-61
2022/10/28 04:49:42;;;;;;;30.02;16.17;;;14.70;99.90;;;;;;4894264;29;20047;-62
2022/10/28 04:52:08;;;;;;;26.35;14.48;;;14.70;99.90;;;;;;4897915;29;20048;-62
2022/10/28 04:54:34;;;;;;;30.15;14.82;;;14.70;99.90;;;;;;4897247;29;20041;-62
2022/10/28 04:57:00;;;;;;;27.38;13.77;;;14.70;99.90;;;;;;4890585;29;20541;-61
2022/10/28 04:59:26;;;;;;;28.13;14.43;;;14.70;99.90;;;;;;4893816;29;20044;-62
2022/10/28 05:01:52;;;;;;;30.65;15.02;;;14.70;99.90;;;;;;4919617;29;20044;-63
2022/10/28 05:04:17;;;;;;;29.02;14.48;;;14.70;99.90;;;;;;4898701;29;20044;-62
2022/10/28 05:06:43;;;;;;;27.85;14.52;;;14.70;99.90;;;;;;4925237;28;20139;-62
2022/10/28 05:09:09;;;;;;;28.02;14.30;;;14.70;99.90;;;;;;4928162;29;20067;-63
2022/10/28 05:11:35;;;;;;;31.52;14.82;;;14.70;99.90;;;;;;4924284;28;20052;-62
2022/10/28 05:14:00;;;;;;;23.52;14.13;;;14.70;99.90;;;;;;4902836;29;20108;-61
2022/10/28 05:16:26;;;;;;;27.58;13.88;;;14.70;99.90;;;;;;4913796;28;20132;-62
2022/10/28 05:18:52;;;;;;;30.20;14.65;;;14.70;99.90;;;;;;4885085;29;20052;-62
2022/10/28 05:21:18;;;;;;;26.35;13.30;;;14.70;99.90;;;;;;4899043;29;20259;-62
2022/10/28 05:23:44;;;;;;;25.73;13.63;;;14.70;99.90;;;;;;4886968;29;20048;-62
2022/10/28 05:26:10;;;;;;;26.65;13.55;;;14.70;99.90;;;;;;4889861;29;20064;-62
2022/10/28 05:28:35;;;;;;;38.58;14.23;;;14.70;99.90;;;;;;4908810;29;20127;-62
2022/10/28 05:31:01;;;;;;;24.42;13.18;;;14.70;99.90;;;;;;4887769;29;20052;-62
2022/10/28 05:33:27;;;;;;;22.98;13.07;;;14.70;99.90;;;;;;4922804;28;20547;-63
2022/10/28 05:35:53;;;;;;;27.13;12.77;;;14.70;99.90;;;;;;4927136;28;20054;-62
2022/10/28 05:38:18;;;;;;;21.83;12.73;;;14.70;99.90;;;;;;4915139;28;20123;-62
2022/10/28 05:40:44;;;;;;;22.88;12.75;;;14.60;99.90;;;;;;4888650;29;20834;-62
2022/10/28 05:43:10;;;;;;;29.95;13.32;;;14.60;99.90;;;;;;4885403;29;20066;-62
2022/10/28 05:45:36;;;;;;;32.83;13.27;;;14.60;99.90;;;;;;4896922;29;20052;-62
2022/10/28 05:48:02;;;;;;;27.65;13.23;;;14.60;99.90;;;;;;4897139;29;20048;-62
2022/10/28 05:50:28;;;;;;;23.60;13.15;;;14.60;99.90;;;;;;4915870;28;20541;-63
2022/10/28 05:52:55;;;;;;;22.73;11.98;;;14.60;99.90;;;;;;4892755;29;20048;-63
2022/10/28 05:55:23;;;;;;;25.52;13.02;;;14.60;99.90;;;;;;4895511;29;20131;-62
2022/10/28 05:57:51;;;;;;;24.35;12.15;;;14.50;99.90;;;;;;4900704;29;20048;-63
2022/10/28 06:00:18;;;;;;;29.98;13.32;;;14.60;99.90;;;;;;4887498;29;20052;-62
2022/10/28 06:02:45;;;;;;;29.10;12.93;;;14.50;99.90;;;;;;4885712;29;20495;-62
2022/10/28 06:05:11;;;;;;;27.75;12.95;;;14.50;99.90;;;;;;4884560;29;20056;-62
2022/10/28 06:07:38;;;;;;;23.63;12.25;;;14.50;99.90;;;;;;4915323;28;20184;-62
2022/10/28 06:10:06;;;;;;;21.90;12.45;;;14.50;99.90;;;;;;4882701;29;20144;-62
2022/10/28 06:12:32;;;;;;;24.08;11.98;;;14.50;99.90;;;;;;4884415;29;20052;-58
2022/10/28 06:14:57;;;;;;;19.67;12.15;;;14.40;99.90;;;;;;4879946;29;20632;-58
2022/10/28 06:17:23;;;;;;;28.92;13.50;;;14.40;99.90;;;;;;4887131;29;20123;-58
2022/10/28 06:19:49;;;;;;;22.13;12.45;;;14.30;99.90;;;;;;4889178;29;20049;-58
2022/10/28 06:22:15;;;;;;;26.02;13.32;;;14.40;99.90;;;;;;4896723;29;20048;-58
2022/10/28 06:24:41;;;;;;;27.63;13.48;;;14.30;99.90;;;;;;4889449;29;20052;-58
2022/10/28 06:27:06;;;;;;;27.90;13.80;;;14.30;99.90;;;;;;4890866;29;20413;-58
2022/10/28 06:29:35;;;;;;;22.73;13.13;;;14.30;99.90;;;;;;4889913;29;20100;-57
2022/10/28 06:32:01;;;;;;;23.55;12.45;;;14.30;99.90;;;;;;4892206;29;20055;-58
2022/10/28 06:34:27;;;;;;;27.23;12.88;;;14.30;99.90;;;;;;4884567;29;20487;-58
2022/10/28 06:36:53;;;;;;;23.40;12.30;;;14.30;99.90;;;;;;4900793;29;20187;-58
2022/10/28 06:39:19;;;;;;;26.52;13.55;;;14.30;99.90;;;;;;4891381;29;20141;-58
2022/10/28 06:41:45;;;;;;;26.25;12.50;;;14.30;99.90;;;;;;4890623;29;20231;-58
2022/10/28 06:44:11;;;;;;;26.67;13.10;;;14.20;99.90;;;;;;4891904;29;20127;-57
2022/10/28 06:46:36;;;;;;;20.33;12.77;;;14.30;99.90;;;;;;4892821;29;20051;-58
2022/10/28 06:49:03;;;;;;;23.63;12.93;;;14.20;99.90;;;;;;4894123;29;20084;-58
2022/10/28 06:51:30;;;;;;;22.50;12.43;;;14.20;99.90;;;;;;4894263;29;20036;-59
2022/10/28 06:53:56;;;;;;;22.98;12.90;;;14.20;99.90;;;;;;4892585;29;20091;-58
2022/10/28 06:56:21;;;;;;;21.95;12.07;;;14.20;99.90;;;;;;4894216;29;20056;-58
2022/10/28 06:58:54;;;;;;;21.15;12.38;;;14.20;99.90;;;;;;4892173;29;20055;-58
2022/10/28 07:01:21;;;;;;;23.48;12.30;;;14.20;99.90;;;;;;4891638;29;20045;-58
2022/10/28 07:03:47;;;;;;;23.67;12.70;;;14.20;99.90;;;;;;4893281;29;20971;-57
2022/10/28 07:06:14;;;;;;;21.20;12.38;;;14.20;99.90;;;;;;4889649;29;20051;-58
2022/10/28 07:08:40;;;;;;;24.35;12.27;;;14.30;99.90;;;;;;4900878;29;20095;-58
2022/10/28 07:11:06;;;;;;;22.48;11.50;;;14.30;99.90;;;;;;4902553;29;20424;-58
2022/10/28 07:13:32;;;;;;;21.23;11.80;;;14.30;99.90;;;;;;4889073;29;20041;-59
2022/10/28 07:15:59;;;;;;;27.30;12.57;;;14.30;99.90;;;;;;4901359;29;20448;-58
2022/10/28 07:18:27;;;;;;;27.50;12.27;;;14.30;99.90;;;;;;4890818;29;20118;-58
2022/10/28 07:20:56;;;;;;;22.42;11.77;;;14.30;99.90;;;;;;4889005;29;20055;-59
2022/10/28 07:23:22;;;;;;;31.92;12.55;;;14.40;99.90;;;;;;4890357;29;20052;-58
2022/10/28 07:25:53;;;;;;;26.65;12.32;;;14.40;99.90;;;;;;4884882;29;20059;-58
2022/10/28 07:28:19;;;;;;;26.98;11.73;;;14.40;99.90;;;;;;4889331;29;20071;-59
2022/10/28 07:30:45;;;;;;;23.80;11.45;;;14.50;99.90;;;;;;4888408;29;20127;-59
2022/10/28 07:33:11;;;;;;;31.35;11.05;;;14.50;99.90;;;;;;4890192;29;20134;-58
2022/10/28 07:35:36;;;;;;;23.90;11.32;;;14.50;99.90;;;;;;4890663;29;20052;-58
2022/10/28 07:38:02;;;;;;;28.00;11.40;;;14.60;99.90;;;;;;4889115;29;20179;-59
2022/10/28 07:40:28;;;;;;;22.85;11.43;;;14.60;99.90;;;;;;4887316;29;20048;-58
2022/10/28 07:42:54;;;;;;;19.90;10.88;;;14.60;99.90;;;;;;4886657;29;20052;-57
2022/10/28 07:45:20;;;;;;;25.00;12.23;;;14.70;99.90;;;;;;4893302;29;20135;-59
2022/10/28 07:47:45;;;;;;;25.17;12.00;;;14.70;99.90;;;;;;4917316;28;20055;-59
2022/10/28 07:50:11;;;;;;;20.23;10.85;;;14.70;99.90;;;;;;4886118;29;20126;-58
2022/10/28 07:52:38;;;;;;;23.75;10.90;;;14.70;99.90;;;;;;4887275;29;20056;-58
2022/10/28 07:55:04;;;;;;;19.35;10.23;;;14.80;99.90;;;;;;4892223;29;20144;-58
2022/10/28 07:57:30;;;;;;;25.27;10.27;;;14.80;99.90;;;;;;4889138;29;20040;-58
2022/10/28 07:59:56;;;;;;;24.33;10.02;;;14.80;99.90;;;;;;4888548;29;20056;-57
2022/10/28 08:02:24;;;;;;;21.15;9.65;;;14.80;99.90;;;;;;4888190;29;20384;-58
2022/10/28 08:04:50;;;;;;;19.25;9.40;;;14.90;99.90;;;;;;4886689;29;20506;-58
2022/10/28 08:07:17;;;;;;;21.58;9.85;;;14.90;99.90;;;;;;4889665;29;20040;-58
2022/10/28 08:09:43;;;;;;;18.63;9.90;;;15.00;99.90;;;;;;4890795;29;20416;-58
2022/10/28 08:12:12;;;;;;;22.20;10.07;;;15.10;99.90;;;;;;4891258;29;20048;-59
2022/10/28 08:14:38;;;;;;;19.70;9.60;;;15.20;99.90;;;;;;4901899;29;20051;-58
2022/10/28 08:17:04;;;;;;;19.65;9.30;;;15.20;99.90;;;;;;4890231;29;20696;-58
2022/10/28 08:19:30;;;;;;;21.83;8.82;;;15.30;99.90;;;;;;4888229;29;20107;-58
2022/10/28 08:21:56;;;;;;;19.52;8.55;;;15.40;99.90;;;;;;4894612;29;20044;-58
2022/10/28 08:24:22;;;;;;;24.10;9.07;;;15.50;99.90;;;;;;4889576;29;20086;-58
2022/10/28 08:26:48;;;;;;;23.95;9.07;;;15.50;99.90;;;;;;4884591;29;20048;-59
2022/10/28 08:29:14;;;;;;;23.67;8.77;;;15.60;99.90;;;;;;4888237;29;20063;-58
2022/10/28 08:31:39;;;;;;;21.92;8.80;;;15.70;99.90;;;;;;4891677;29;20051;-59
2022/10/28 08:34:06;;;;;;;20.70;8.88;;;15.70;99.90;;;;;;4891440;29;20100;-59
2022/10/28 08:36:33;;;;;;;15.15;7.97;;;15.80;99.90;;;;;;4896681;29;20048;-59
2022/10/28 08:39:00;;;;;;;16.58;7.28;;;15.90;99.90;;;;;;4892070;29;20040;-58
2022/10/28 08:41:35;;;;;;;18.10;7.38;;;16.00;99.90;;;;;;4900007;29;20052;-58
2022/10/28 08:44:22;;;;;;;21.25;8.10;;;16.10;99.90;;;;;;4889914;29;20052;-58
2022/10/28 08:47:20;;;;;;;18.67;7.45;;;16.10;99.90;;;;;;4917151;28;20048;-58
2022/10/28 08:49:49;;;;;;;23.42;7.28;;;16.30;99.90;;;;;;4885283;29;20091;-58
2022/10/28 08:52:27;;;;;;;18.42;8.05;;;16.30;99.90;;;;;;4886613;29;20048;-58
2022/10/28 08:54:57;;;;;;;18.92;7.57;;;16.40;99.90;;;;;;4887937;29;20146;-59
2022/10/28 08:57:51;;;;;;;17.85;7.38;;;16.50;99.90;;;;;;4886853;29;20127;-58
2022/10/28 09:00:22;;;;;;;14.55;7.00;;;16.60;99.90;;;;;;4887922;29;20063;-58
2022/10/28 09:03:15;;;;;;;20.05;7.38;;;16.70;99.90;;;;;;4889069;29;20547;-58
2022/10/28 09:05:51;;;;;;;17.55;7.88;;;16.80;99.90;;;;;;4886836;29;20943;-58
2022/10/28 09:08:23;;;;;;;15.52;7.68;;;16.80;99.90;;;;;;4889238;29;20131;-59
2022/10/28 09:11:04;;;;;;;17.75;7.00;;;16.90;99.90;;;;;;4888848;29;20045;-59
2022/10/28 09:13:45;;;;;;;15.63;6.70;;;16.90;99.90;;;;;;4899563;29;20056;-59
2022/10/28 09:16:23;;;;;;;20.38;7.50;;;17.00;99.90;;;;;;4890996;29;20080;-57
2022/10/28 09:19:11;;;;;;;16.40;6.43;;;17.00;99.90;;;;;;4891072;29;20684;-58
2022/10/28 09:21:44;;;;;;;14.52;6.85;;;17.00;99.90;;;;;;4884048;29;20509;-58
2022/10/28 09:24:18;;;;;;;14.00;6.65;;;17.10;99.90;;;;;;4918831;29;20044;-58
2022/10/28 09:27:03;;;;;;;14.88;6.65;;;17.10;99.90;;;;;;4886688;29;20056;-58
2022/10/28 09:29:49;;;;;;;14.52;7.22;;;17.10;99.90;;;;;;4886885;29;20082;-58
2022/10/28 09:32:38;;;;;;;17.90;6.60;;;17.20;99.90;;;;;;4888388;29;20078;-58
2022/10/28 09:35:13;;;;;;;16.80;7.25;;;17.20;99.90;;;;;;4875983;29;20163;-59
2022/10/28 09:37:48;;;;;;;17.02;7.35;;;17.20;99.90;;;;;;4890961;29;20044;-58
2022/10/28 09:40:17;;;;;;;18.17;7.15;;;17.20;99.90;;;;;;4889262;29;20051;-59
2022/10/28 09:43:03;;;;;;;21.35;7.20;;;17.30;99.90;;;;;;4887760;29;21074;-59
2022/10/28 09:45:31;;;;;;;22.30;7.28;;;17.30;99.90;;;;;;4886878;29;20492;-58
2022/10/28 09:48:20;;;;;;;12.80;5.53;;;17.30;99.90;;;;;;4886881;29;20134;-59
2022/10/28 09:50:49;;;;;;;13.98;6.25;;;17.30;99.90;;;;;;4882165;29;20578;-59
2022/10/28 09:53:27;;;;;;;15.25;6.65;;;17.30;99.90;;;;;;4892927;29;20091;-59
2022/10/28 09:55:53;;;;;;;17.55;6.10;;;17.30;99.90;;;;;;4887808;29;20095;-59
2022/10/28 09:58:19;;;;;;;22.42;6.18;;;17.40;99.90;;;;;;4887419;29;20052;-59
2022/10/28 10:00:45;;;;;;;18.17;6.05;;;17.40;99.90;;;;;;4884429;29;20058;-59
2022/10/28 10:03:11;;;;;;;16.17;5.47;;;17.40;99.90;;;;;;4890600;29;20063;-59
2022/10/28 10:05:41;;;;;;;14.10;6.18;;;17.50;99.90;;;;;;4922886;28;20092;-59
2022/10/28 10:08:15;;;;;;;13.88;6.18;;;17.50;99.90;;;;;;4888891;29;20064;-58
2022/10/28 10:10:53;;;;;;;14.70;6.63;;;17.50;99.90;;;;;;4917203;28;20485;-59
2022/10/28 10:13:27;;;;;;;19.88;6.53;;;17.50;99.90;;;;;;4889805;29;20531;-57
2022/10/28 10:16:00;;;;;;;17.45;6.40;;;17.60;99.90;;;;;;4887748;29;20483;-59
2022/10/28 10:18:28;;;;;;;;;;;17.60;99.90;;;;;;4887821;29;20137;-59
2022/10/28 10:20:59;;;;;;;17.27;6.13;;;17.60;99.90;;;;;;4900685;29;20022;-60
2022/10/28 10:23:35;;;;;;;22.63;6.18;;;17.60;99.90;;;;;;4892804;29;20094;-59
2022/10/28 10:26:11;;;;;;;19.10;6.07;;;17.70;99.90;;;;;;4898078;29;20048;-59
2022/10/28 10:28:45;;;;;;;17.25;5.72;;;17.80;99.90;;;;;;4899563;29;20056;-58
2022/10/28 10:31:24;;;;;;;18.90;6.07;;;17.80;99.90;;;;;;4899624;29;20063;-59
2022/10/28 10:33:55;;;;;;;20.27;6.15;;;17.90;99.90;;;;;;4897734;29;20063;-58
2022/10/28 10:36:27;;;;;;;16.38;5.95;;;17.90;99.90;;;;;;4889233;29;20407;-59
2022/10/28 10:38:56;;;;;;;18.25;5.93;;;17.90;99.90;;;;;;4888841;29;20059;-59
2022/10/28 10:41:39;;;;;;;16.23;6.13;;;18.00;99.90;;;;;;4894296;29;21720;-58
2022/10/28 10:44:20;;;;;;;21.67;6.20;;;18.10;99.90;;;;;;4894017;29;20127;-59
2022/10/28 10:47:06;;;;;;;15.65;5.85;;;18.10;99.90;;;;;;4886580;29;20055;-58
2022/10/28 10:49:35;;;;;;;14.93;6.10;;;18.30;99.90;;;;;;4889602;29;20056;-58
2022/10/28 10:52:20;;;;;;;25.40;5.97;;;18.30;99.90;;;;;;4888498;29;20108;-59
2022/10/28 10:55:04;;;;;;;14.88;5.80;;;18.40;99.90;;;;;;4890596;29;20056;-59
2022/10/28 10:57:30;;;;;;;13.35;5.50;;;18.50;99.90;;;;;;4892572;29;20103;-59
2022/10/28 10:59:56;;;;;;;15.65;5.80;;;18.60;99.90;;;;;;4891939;29;20191;-59
2022/10/28 11:02:34;;;;;;;15.10;5.57;;;18.70;99.90;;;;;;4887168;29;20063;-59
2022/10/28 11:05:06;;;;;;;20.38;6.15;;;18.90;99.90;;;;;;4890755;29;20383;-59
2022/10/28 11:07:32;;;;;;;18.30;5.75;;;18.90;99.90;;;;;;4889001;29;20044;-59
2022/10/28 11:09:58;;;;;;;14.63;5.50;;;18.90;99.90;;;;;;4892797;29;20408;-58
2022/10/28 11:12:26;;;;;;;18.73;5.78;;;18.90;99.90;;;;;;4895507;29;20124;-59
2022/10/28 11:15:18;;;;;;;22.20;5.63;;;19.00;99.90;;;;;;4886840;29;20056;-59
2022/10/28 11:18:19;;;;;;;25.13;5.90;;;19.10;99.90;;;;;;4888825;29;20268;-59
2022/10/28 11:21:02;;;;;;;18.15;5.28;;;19.30;99.90;;;;;;4889942;29;20084;-59
2022/10/28 11:23:40;;;;;;;18.50;5.82;;;19.30;99.90;;;;;;4892992;29;20053;-59
2022/10/28 11:26:12;;;;;;;20.10;5.90;;;19.30;99.90;;;;;;4892085;29;20063;-58
2022/10/28 11:28:55;;;;;;;19.17;5.63;;;19.20;99.90;;;;;;4892356;29;20048;-59
2022/10/28 11:31:48;;;;;;;15.77;6.18;;;19.30;99.90;;;;;;4892366;29;20052;-58
2022/10/28 11:34:43;;;;;;;18.38;5.65;;;19.50;99.90;;;;;;4886489;29;20530;-59
2022/10/28 11:37:44;;;;;;;24.60;5.88;;;19.70;99.90;;;;;;4888754;29;20060;-58
2022/10/28 11:40:57;;;;;;;18.05;5.38;;;19.80;99.90;;;;;;4880219;29;20063;-59
2022/10/28 11:43:52;;;;;;;18.98;5.18;;;19.90;99.90;;;;;;4864471;29;20048;-55
2022/10/28 11:46:24;;;;;;;12.40;5.18;;;20.00;99.90;;;;;;4911779;28;20591;-67
2022/10/28 11:49:18;;;;;;;13.50;4.82;;;20.10;99.90;;;;;;4914447;28;20120;-69
2022/10/28 11:51:53;;;;;;;19.88;5.15;;;20.20;99.90;;;;;;4895904;29;20109;-70
2022/10/28 11:54:44;;;;;;;14.30;5.07;;;20.30;99.90;;;;;;4914209;28;20441;-71
2022/10/28 11:57:23;;;;;;;15.48;5.28;;;20.40;99.90;;;;;;4885991;29;20052;-70
2022/10/28 12:00:14;;;;;;;18.90;5.25;;;20.50;99.90;;;;;;4895314;29;20082;-71
2022/10/28 12:03:20;;;;;;;18.55;5.30;;;20.60;99.90;;;;;;4892166;29;20071;-71
2022/10/28 12:06:13;;;;;;;19.45;5.47;;;20.80;99.90;;;;;;4887491;29;20188;-67
2022/10/28 12:09:10;;;;;;;9.60;4.88;;;20.90;99.90;;;;;;4892409;29;20147;-68
2022/10/28 12:12:00;;;;;;;17.42;5.20;;;20.90;99.90;;;;;;4903038;29;20049;-67
2022/10/28 12:14:44;;;;;;;18.85;5.10;;;20.90;99.90;;;;;;4921378;28;20053;-70
2022/10/28 12:17:23;;;;;;;13.85;4.97;;;20.90;99.90;;;;;;4888480;29;20048;-66
2022/10/28 12:19:55;;;;;;;21.30;4.68;;;20.80;99.90;;;;;;4898562;29;20048;-69
2022/10/28 12:22:28;;;;;;;19.48;5.28;;;20.80;99.90;;;;;;4885258;29;20059;-67
2022/10/28 12:24:57;;;;;;;13.98;4.40;;;20.70;99.90;;;;;;4885781;29;20426;-68
2022/10/28 12:27:36;;;;;;;20.40;5.00;;;20.70;99.90;;;;;;4919693;28;20054;-69
2022/10/28 12:30:16;;;;;;;14.07;4.70;;;20.60;99.90;;;;;;4888329;29;20048;-69
2022/10/28 12:32:44;;;;;;;14.63;4.90;;;20.50;99.90;;;;;;4888991;29;20070;-71
2022/10/28 12:35:22;;;;;;;18.95;5.28;;;20.40;99.90;;;;;;4886955;29;20134;-69
2022/10/28 12:37:59;;;;;;;21.98;5.05;;;20.40;99.90;;;;;;4914031;28;20199;-66
2022/10/28 12:40:36;;;;;;;11.55;4.55;;;20.30;99.90;;;;;;4914793;28;20051;-66
2022/10/28 12:43:20;;;;;;;20.95;5.03;;;20.20;99.90;;;;;;4886019;29;20048;-66
2022/10/28 12:45:48;;;;;;;16.52;4.93;;;20.20;99.90;;;;;;4902200;29;20052;-66
2022/10/28 12:48:37;;;;;;;21.17;4.90;;;20.10;99.90;;;;;;4895694;29;20120;-66
2022/10/28 12:51:25;;;;;;;14.35;4.88;;;20.10;99.90;;;;;;4901166;29;20131;-66
2022/10/28 12:54:24;;;;;;;16.65;5.70;;;20.10;99.90;;;;;;4897367;29;20053;-66
2022/10/28 12:57:00;;;;;;;19.98;5.28;;;20.00;99.90;;;;;;4909868;28;20052;-66
2022/10/28 12:59:37;;;;;;;14.98;4.90;;;20.00;99.90;;;;;;4884738;29;20048;-67